Saint-Pacome, Canada
Current Conditions -  °F | °C
As of 1:37 AM on Wednesday 28 Jan 2015 (Local Time) from KFVE Reporting Station
Light Snow Light Snow  
Wind Chill: -23°   Ceiling: 6000
Heat Index: -13°   Visibility: 8mi
Dew Point: -17°   Wind: 15mph
Humidity: 73%   Direction: 350°N
Pressure: 29.75"   Gusts: 24mph
Location:  47.42°N, 69.95°W
Report Text: KFVE 280637Z AUTO 35013G21KT 8SM -SN SCT028 OVC060 M13/M17 A2975 RMK AO2 P0000 T11331172
Loading
Personal Weather Stations






























Interactive Weather Map New forecast layout! Learn more

10-Day Weather Forecast

Advertisements
Track Severe Weather on mobile